Time;durP1;ratioP1;P1;durP2;ratioP2;P2;SDS_P1;SDS_P2;PMS_P1;PMS_P2;Temp;Humidity;BMP_temperature;BMP_pressure;BME280_temperature;BME280_humidity;BME280_pressure;Samples;Min_cycle;Max_cycle;Signal;HPM_P1;HPM_P2
2021/12/07 00:00:43;;;;;;;63.10;48.25;;;17.60;53.70;;;;;;4923416;28;93540;-74
2021/12/07 00:03:09;;;;;;;62.47;48.47;;;17.60;53.60;;;;;;4926820;28;93067;-73
2021/12/07 00:05:34;;;;;;;62.80;48.13;;;17.60;53.90;;;;;;4934153;28;92157;-73
2021/12/07 00:08:00;;;;;;;61.92;48.13;;;17.60;53.60;;;;;;4921932;28;91754;-73
2021/12/07 00:10:26;;;;;;;62.55;48.35;;;17.50;53.70;;;;;;4922658;28;92299;-73
2021/12/07 00:12:52;;;;;;;60.83;48.15;;;17.50;53.70;;;;;;4949989;28;89429;-74
2021/12/07 00:15:21;;;;;;;61.42;48.03;;;17.50;53.90;;;;;;4933792;28;89427;-73
2021/12/07 00:17:47;;;;;;;63.38;48.33;;;17.50;53.60;;;;;;4933511;28;92057;-74
2021/12/07 00:20:17;;;;;;;62.00;48.58;;;17.40;53.80;;;;;;4930861;28;94569;-73
2021/12/07 00:22:45;;;;;;;61.30;48.13;;;17.40;53.70;;;;;;4932121;28;96316;-73
2021/12/07 00:25:12;;;;;;;62.78;48.25;;;17.40;53.80;;;;;;4933554;28;92948;-73
2021/12/07 00:27:38;;;;;;;61.03;48.05;;;17.40;53.80;;;;;;4932863;28;90974;-73
2021/12/07 00:30:06;;;;;;;61.30;47.92;;;17.30;53.80;;;;;;4946821;28;92932;-73
2021/12/07 00:32:36;;;;;;;62.58;48.35;;;17.30;53.80;;;;;;4932588;28;89842;-73
2021/12/07 00:37:40;;;;;;;60.45;47.75;;;17.30;54.00;;;;;;4929250;28;90582;-74
2021/12/07 00:40:08;;;;;;;60.22;48.03;;;17.30;54.00;;;;;;4947040;28;89653;-74
2021/12/07 00:42:35;;;;;;;62.58;48.00;;;17.30;53.90;;;;;;4933503;28;90381;-74
2021/12/07 00:45:01;;;;;;;62.10;48.20;;;17.30;54.00;;;;;;4928510;28;90396;-73
2021/12/07 00:47:27;;;;;;;61.20;48.13;;;17.20;54.00;;;;;;4926021;28;93126;-73
2021/12/07 00:49:53;;;;;;;63.20;48.55;;;17.20;54.20;;;;;;4939578;28;91328;-74
2021/12/07 00:52:19;;;;;;;61.13;47.97;;;17.20;54.00;;;;;;4936351;28;90311;-74
2021/12/07 00:54:44;;;;;;;61.65;48.22;;;17.20;54.10;;;;;;4937473;28;92474;-74
2021/12/07 00:57:10;;;;;;;60.60;48.13;;;17.20;54.10;;;;;;4937776;28;91416;-74
2021/12/07 00:59:36;;;;;;;61.20;48.30;;;17.10;54.20;;;;;;4930923;28;90304;-74
2021/12/07 01:02:02;;;;;;;61.30;47.80;;;17.10;54.00;;;;;;4926640;28;92454;-73
2021/12/07 01:04:28;;;;;;;61.33;48.25;;;17.10;54.10;;;;;;4933394;28;88670;-73
2021/12/07 01:25:44;;;;;;;61.00;48.20;;;17.00;54.30;;;;;;4946656;28;90067;-74
2021/12/07 01:28:24;;;;;;;61.85;48.20;;;17.00;54.20;;;;;;4933738;28;89684;-73
2021/12/07 01:47:54;;;;;;;61.08;47.90;;;16.90;54.20;;;;;;4942239;28;92101;-74
2021/12/07 01:53:10;;;;;;;61.17;48.00;;;16.90;54.20;;;;;;4936875;28;90393;-73
2021/12/07 02:00:49;;;;;;;61.55;48.15;;;16.90;54.20;;;;;;4940884;28;89774;-74
2021/12/07 02:03:15;;;;;;;61.05;48.00;;;16.90;54.30;;;;;;4924413;28;93060;-74
2021/12/07 02:05:41;;;;;;;61.58;47.85;;;16.80;54.20;;;;;;4930116;28;91365;-74
2021/12/07 02:08:07;;;;;;;60.83;48.03;;;16.80;54.30;;;;;;4939130;28;91813;-74
2021/12/07 02:10:33;;;;;;;61.67;48.05;;;16.80;54.20;;;;;;4938507;28;89884;-74
2021/12/07 02:13:06;;;;;;;60.22;47.75;;;16.80;54.30;;;;;;4935721;28;90943;-72
2021/12/07 02:15:33;;;;;;;61.00;47.70;;;16.80;54.40;;;;;;4932079;28;92651;-73
2021/12/07 02:17:59;;;;;;;62.28;48.03;;;16.80;54.40;;;;;;4931188;28;90119;-72
2021/12/07 02:20:28;;;;;;;61.53;47.75;;;16.80;54.30;;;;;;4945561;28;90219;-73
2021/12/07 02:22:54;;;;;;;61.88;47.75;;;16.80;54.80;;;;;;4938882;28;89478;-73
2021/12/07 02:25:20;;;;;;;60.35;47.83;;;16.80;54.30;;;;;;4950505;28;90061;-74
2021/12/07 02:27:47;;;;;;;62.45;48.20;;;16.80;54.20;;;;;;4945199;28;89843;-74
2021/12/07 02:30:16;;;;;;;59.53;47.60;;;16.80;54.10;;;;;;4940038;28;92016;-74
2021/12/07 02:32:42;;;;;;;59.70;47.78;;;16.80;54.20;;;;;;4934906;28;89605;-73
2021/12/07 02:35:11;;;;;;;64.15;47.83;;;16.70;54.20;;;;;;4928006;28;92153;-73
2021/12/07 02:37:37;;;;;;;61.83;48.05;;;16.70;54.20;;;;;;4944395;28;90296;-73
2021/12/07 02:40:05;;;;;;;61.55;48.13;;;16.70;54.20;;;;;;4937673;28;90870;-73
2021/12/07 02:42:31;;;;;;;62.05;47.75;;;16.70;54.20;;;;;;4932563;28;91317;-73
2021/12/07 02:44:56;;;;;;;60.22;48.00;;;16.60;54.30;;;;;;4935652;28;94155;-73
2021/12/07 02:47:22;;;;;;;61.47;48.17;;;16.70;54.30;;;;;;4943690;28;89366;-74
2021/12/07 02:49:48;;;;;;;61.08;47.83;;;16.60;54.30;;;;;;4944206;28;90288;-73
2021/12/07 02:52:15;;;;;;;61.53;47.95;;;16.70;54.20;;;;;;4938511;28;91001;-73
2021/12/07 02:54:49;;;;;;;60.10;47.80;;;16.60;54.20;;;;;;4936061;28;91807;-73
2021/12/07 02:57:17;;;;;;;62.05;47.78;;;16.60;54.30;;;;;;4929939;28;91826;-74
2021/12/07 02:59:50;;;;;;;60.75;47.85;;;16.60;54.30;;;;;;4939071;28;90945;-74
2021/12/07 03:02:17;;;;;;;60.83;47.72;;;16.60;54.20;;;;;;4936862;28;90040;-73
2021/12/07 03:04:58;;;;;;;60.97;47.85;;;16.60;54.40;;;;;;4926411;28;91094;-73
2021/12/07 03:07:43;;;;;;;61.20;47.90;;;16.60;54.40;;;;;;4938239;28;89534;-73
2021/12/07 03:26:35;;;;;;;61.35;47.85;;;16.50;54.20;;;;;;4932365;28;89663;-74
2021/12/07 03:29:02;;;;;;;61.90;47.65;;;16.50;54.30;;;;;;4939190;28;90370;-74
2021/12/07 03:31:30;;;;;;;59.10;47.47;;;16.50;54.30;;;;;;4933912;28;90452;-73
2021/12/07 03:33:57;;;;;;;60.95;47.88;;;16.50;54.20;;;;;;4927369;28;90727;-74
2021/12/07 03:36:23;;;;;;;61.80;47.58;;;16.50;54.20;;;;;;4938817;28;91002;-74
2021/12/07 03:38:50;;;;;;;59.97;47.83;;;16.50;54.20;;;;;;4934658;28;90289;-74
2021/12/07 03:41:18;;;;;;;59.47;47.65;;;16.50;54.20;;;;;;4943534;28;89395;-74
2021/12/07 03:43:43;;;;;;;61.42;47.72;;;16.50;54.20;;;;;;4931322;28;91352;-73
2021/12/07 03:46:09;;;;;;;62.75;47.72;;;16.40;54.10;;;;;;4931254;28;91910;-73
2021/12/07 03:48:37;;;;;;;59.63;47.17;;;16.40;54.20;;;;;;4942717;28;89369;-73
2021/12/07 03:51:03;;;;;;;61.28;47.90;;;16.50;54.30;;;;;;4940553;28;89952;-73
2021/12/07 03:53:29;;;;;;;60.42;47.80;;;16.40;54.20;;;;;;4938872;28;93218;-73
2021/12/07 03:55:55;;;;;;;60.42;47.92;;;16.40;54.30;;;;;;4947320;28;91051;-74
2021/12/07 03:58:21;;;;;;;61.22;47.83;;;16.40;54.20;;;;;;4931740;28;89859;-73
2021/12/07 04:00:47;;;;;;;61.45;48.00;;;16.40;54.20;;;;;;4939633;28;89996;-73
2021/12/07 04:03:15;;;;;;;59.65;47.75;;;16.50;54.20;;;;;;4929842;28;91044;-73
2021/12/07 04:05:48;;;;;;;61.63;47.75;;;16.40;54.00;;;;;;4945654;28;93719;-74
2021/12/07 04:08:21;;;;;;;59.90;47.85;;;16.40;54.10;;;;;;4951509;28;90395;-73
2021/12/07 04:10:47;;;;;;;58.63;47.35;;;16.40;54.10;;;;;;4939293;28;90776;-73
2021/12/07 04:13:13;;;;;;;60.83;48.03;;;16.30;54.10;;;;;;4934884;28;92212;-73
2021/12/07 04:15:39;;;;;;;60.45;47.92;;;16.30;54.10;;;;;;4931170;28;92161;-73
2021/12/07 04:18:05;;;;;;;60.53;47.63;;;16.30;54.10;;;;;;4925640;28;90279;-73
2021/12/07 04:20:32;;;;;;;60.28;47.75;;;16.30;54.20;;;;;;4931149;28;89676;-73
2021/12/07 04:22:57;;;;;;;61.08;47.85;;;16.30;54.30;;;;;;4927730;28;90511;-74
2021/12/07 04:25:26;;;;;;;59.70;47.55;;;16.30;54.20;;;;;;4934258;28;90046;-74
2021/12/07 04:27:53;;;;;;;59.35;47.55;;;16.30;54.20;;;;;;4935110;28;89420;-74
2021/12/07 04:30:24;;;;;;;60.30;47.75;;;16.30;54.20;;;;;;4932857;28;90070;-74
2021/12/07 04:32:50;;;;;;;62.45;48.03;;;16.30;54.30;;;;;;4931491;28;91911;-74
2021/12/07 04:35:16;;;;;;;61.33;47.55;;;16.20;54.20;;;;;;4924914;28;91014;-73
2021/12/07 04:37:42;;;;;;;60.50;47.67;;;16.20;54.10;;;;;;4936223;28;91573;-73
2021/12/07 04:40:12;;;;;;;60.33;47.60;;;16.30;54.30;;;;;;4925307;28;91788;-73
2021/12/07 04:42:38;;;;;;;60.78;47.78;;;16.30;54.00;;;;;;4934371;28;91486;-73
2021/12/07 04:45:09;;;;;;;59.85;47.55;;;16.30;54.10;;;;;;4925268;28;90265;-72
2021/12/07 04:47:46;;;;;;;60.55;47.92;;;16.30;54.00;;;;;;4932090;28;92292;-73
2021/12/07 04:58:09;;;;;;;60.07;47.47;;;16.30;54.10;;;;;;4921579;28;90405;-73
2021/12/07 05:00:36;;;;;;;60.60;47.47;;;16.30;53.90;;;;;;4923203;28;95830;-73
2021/12/07 05:03:06;;;;;;;60.95;47.88;;;16.40;54.10;;;;;;4921589;28;90936;-73
2021/12/07 05:05:37;;;;;;;61.13;47.80;;;16.30;53.70;;;;;;4923388;28;91347;-74
2021/12/07 05:08:06;;;;;;;61.22;47.75;;;16.30;53.80;;;;;;4928240;28;92310;-73
2021/12/07 05:13:25;;;;;;;59.22;47.45;;;16.30;53.80;;;;;;4917177;28;90816;-73
2021/12/07 05:18:59;;;;;;;60.53;47.50;;;16.40;54.30;;;;;;4946906;28;89363;-73
2021/12/07 05:39:56;;;;;;;59.70;47.85;;;17.20;53.40;;;;;;4926430;28;91682;-73
2021/12/07 05:42:23;;;;;;;61.15;48.10;;;17.30;53.30;;;;;;4929848;28;92222;-72
2021/12/07 05:44:50;;;;;;;60.67;48.00;;;17.40;52.80;;;;;;4925023;28;89734;-72
2021/12/07 05:47:16;;;;;;;60.00;47.80;;;17.50;52.60;;;;;;4929486;28;95058;-72
2021/12/07 05:49:42;;;;;;;61.75;48.13;;;17.60;52.60;;;;;;4923544;28;90911;-73
2021/12/07 05:52:08;;;;;;;61.50;47.85;;;17.70;52.30;;;;;;4924471;28;90668;-72
2021/12/07 05:54:34;;;;;;;61.95;47.97;;;17.80;52.20;;;;;;4926472;28;90987;-73
2021/12/07 05:56:59;;;;;;;62.50;48.50;;;17.80;52.00;;;;;;4932756;28;92259;-73
2021/12/07 05:59:25;;;;;;;61.70;48.03;;;17.80;51.90;;;;;;4926749;28;91987;-72
2021/12/07 06:01:51;;;;;;;63.42;48.45;;;17.80;51.60;;;;;;4919798;28;90773;-73
2021/12/07 06:04:16;;;;;;;60.75;47.90;;;17.90;51.30;;;;;;4930587;28;92130;-73
2021/12/07 06:06:42;;;;;;;62.85;48.35;;;17.90;50.80;;;;;;4943655;28;92342;-73
2021/12/07 06:09:07;;;;;;;63.67;48.15;;;17.90;51.00;;;;;;4933105;28;88746;-72
2021/12/07 06:11:33;;;;;;;61.05;47.80;;;17.90;51.20;;;;;;4936490;28;89624;-73
2021/12/07 06:13:59;;;;;;;61.60;48.22;;;17.90;51.40;;;;;;4920073;28;91154;-73
2021/12/07 06:16:29;;;;;;;63.22;47.70;;;17.90;51.60;;;;;;4926967;28;91648;-73
2021/12/07 06:18:55;;;;;;;60.47;48.23;;;17.90;51.50;;;;;;4946155;28;90550;-73
2021/12/07 06:21:21;;;;;;;61.88;47.97;;;17.90;51.30;;;;;;4923656;28;92087;-73
2021/12/07 06:23:46;;;;;;;62.17;48.05;;;17.90;51.60;;;;;;4932062;28;90352;-73
2021/12/07 06:26:12;;;;;;;60.88;47.83;;;17.90;51.70;;;;;;4915054;28;93476;-73
2021/12/07 06:28:37;;;;;;;67.15;48.45;;;17.80;51.60;;;;;;4920504;28;98530;-74
2021/12/07 06:31:04;;;;;;;68.38;48.13;;;17.80;51.60;;;;;;4938387;28;90477;-72
2021/12/07 06:33:31;;;;;;;63.10;48.15;;;17.80;51.90;;;;;;4909874;28;90394;-77
2021/12/07 06:36:00;;;;;;;61.28;48.00;;;17.80;52.10;;;;;;4901596;28;91414;-78
2021/12/07 06:38:30;;;;;;;65.07;48.22;;;17.60;52.50;;;;;;4927946;28;91070;-80
2021/12/07 06:40:57;;;;;;;64.68;48.30;;;17.70;53.10;;;;;;4931799;28;92894;-78
2021/12/07 06:43:23;;;;;;;63.65;48.25;;;17.80;53.50;;;;;;4922865;28;92524;-80
2021/12/07 06:45:49;;;;;;;64.15;48.30;;;17.90;53.10;;;;;;4946157;28;91575;-79
2021/12/07 06:48:15;;;;;;;63.55;48.30;;;17.90;53.10;;;;;;4925542;28;91868;-78
2021/12/07 06:50:41;;;;;;;65.63;48.35;;;17.90;53.10;;;;;;4938119;28;93043;-79
2021/12/07 06:53:07;;;;;;;66.00;48.65;;;18.00;52.60;;;;;;4933908;28;91116;-78
2021/12/07 06:55:33;;;;;;;65.00;48.53;;;18.00;52.40;;;;;;4937703;28;90757;-79
2021/12/07 06:57:59;;;;;;;65.93;48.50;;;18.00;52.10;;;;;;4933945;28;90492;-77
2021/12/07 07:00:25;;;;;;;65.22;48.25;;;17.80;51.70;;;;;;4940063;28;91029;-78
2021/12/07 07:02:51;;;;;;;62.05;48.53;;;17.80;52.20;;;;;;4919436;28;94846;-78
2021/12/07 07:05:17;;;;;;;67.75;48.55;;;17.70;51.80;;;;;;4931028;28;90801;-79
2021/12/07 07:07:43;;;;;;;65.85;49.13;;;17.60;51.70;;;;;;4933895;28;89933;-78
2021/12/07 07:10:14;;;;;;;67.45;49.10;;;17.60;51.90;;;;;;4942925;28;93415;-79
2021/12/07 07:12:40;;;;;;;68.35;48.75;;;17.60;51.50;;;;;;4940326;28;89919;-79
2021/12/07 07:15:08;;;;;;;67.97;48.80;;;17.50;51.20;;;;;;4934577;28;90120;-77
2021/12/07 07:17:33;;;;;;;66.53;48.75;;;17.50;51.30;;;;;;4931677;28;90436;-78
2021/12/07 07:19:59;;;;;;;68.18;48.95;;;17.50;51.50;;;;;;4932678;28;90194;-80
2021/12/07 07:22:25;;;;;;;63.47;48.70;;;17.50;51.30;;;;;;4930085;28;92662;-77
2021/12/07 07:24:51;;;;;;;66.18;48.72;;;17.60;51.60;;;;;;4933562;28;96957;-78
2021/12/07 07:27:17;;;;;;;69.00;49.22;;;17.50;51.60;;;;;;4923540;28;89989;-79
2021/12/07 07:29:42;;;;;;;67.55;48.83;;;17.50;51.90;;;;;;4935257;28;92987;-78
2021/12/07 07:32:08;;;;;;;65.18;48.75;;;17.60;51.50;;;;;;4929547;28;90616;-79
2021/12/07 07:34:34;;;;;;;63.88;48.95;;;17.70;51.10;;;;;;4914694;28;93148;-77
2021/12/07 07:36:59;;;;;;;64.82;48.63;;;17.70;51.20;;;;;;4930798;28;95421;-80
2021/12/07 07:39:25;;;;;;;66.30;48.83;;;17.70;51.10;;;;;;4929572;28;91017;-81
2021/12/07 07:41:51;;;;;;;66.10;48.70;;;17.70;51.30;;;;;;4936222;28;91557;-81
2021/12/07 07:44:17;;;;;;;67.95;49.03;;;17.80;51.30;;;;;;4932910;28;91089;-81
2021/12/07 07:46:42;;;;;;;69.28;49.00;;;17.90;50.90;;;;;;4939569;28;94335;-81
2021/12/07 07:49:08;;;;;;;67.05;49.05;;;17.90;50.60;;;;;;4939967;28;90452;-81
2021/12/07 07:51:35;;;;;;;63.75;49.00;;;17.90;50.70;;;;;;4941399;28;90753;-81
2021/12/07 07:54:02;;;;;;;65.72;48.78;;;18.00;50.50;;;;;;4931324;28;92617;-78
2021/12/07 07:56:29;;;;;;;64.15;49.13;;;18.00;50.40;;;;;;4928179;28;91088;-77
2021/12/07 07:58:57;;;;;;;66.72;49.17;;;18.00;50.20;;;;;;4929309;28;90321;-77
2021/12/07 08:01:23;;;;;;;69.07;49.00;;;18.00;50.00;;;;;;4933403;28;91082;-76
2021/12/07 08:03:50;;;;;;;64.50;48.92;;;18.10;50.70;;;;;;4933172;28;91700;-77
2021/12/07 08:06:17;;;;;;;70.75;49.35;;;18.10;50.10;;;;;;4939847;28;90484;-77
2021/12/07 08:08:42;;;;;;;67.88;49.45;;;18.10;50.10;;;;;;4928745;28;92912;-76
2021/12/07 08:11:08;;;;;;;68.38;48.92;;;18.10;50.50;;;;;;4941059;28;94606;-77
2021/12/07 08:13:33;;;;;;;66.25;49.00;;;18.00;50.50;;;;;;4922601;28;91416;-76
2021/12/07 08:15:59;;;;;;;66.53;49.03;;;18.00;50.50;;;;;;4941745;28;91575;-77
2021/12/07 08:18:25;;;;;;;68.18;49.33;;;18.00;50.50;;;;;;4941648;28;90591;-77
2021/12/07 08:20:51;;;;;;;65.80;49.25;;;18.00;50.80;;;;;;4944614;28;90168;-76
2021/12/07 08:23:17;;;;;;;69.40;49.85;;;18.00;50.60;;;;;;4934119;28;91771;-76
2021/12/07 08:25:47;;;;;;;67.70;49.50;;;18.00;50.70;;;;;;4938670;28;91126;-77
2021/12/07 08:28:17;;;;;;;66.82;49.50;;;18.10;50.40;;;;;;4932998;28;90954;-77
2021/12/07 08:30:43;;;;;;;65.88;49.50;;;18.20;49.90;;;;;;4936324;28;93710;-76
2021/12/07 08:33:09;;;;;;;66.60;49.40;;;18.30;49.90;;;;;;4948281;28;91305;-77
2021/12/07 08:35:35;;;;;;;66.28;49.35;;;18.30;50.20;;;;;;4954778;28;89627;-76
2021/12/07 08:38:02;;;;;;;66.63;49.67;;;18.20;50.10;;;;;;4925018;28;90343;-76
2021/12/07 08:40:30;;;;;;;65.53;49.22;;;18.20;50.80;;;;;;4937453;28;94473;-76
2021/12/07 08:42:56;;;;;;;65.40;49.47;;;18.20;50.70;;;;;;4940077;28;91875;-77
2021/12/07 08:45:23;;;;;;;64.65;49.33;;;18.20;51.20;;;;;;4940110;28;92597;-77
2021/12/07 08:47:50;;;;;;;66.55;49.33;;;18.20;51.10;;;;;;4938997;28;94721;-77
2021/12/07 08:50:20;;;;;;;67.72;49.55;;;18.20;51.20;;;;;;4940220;28;91470;-77
2021/12/07 08:52:47;;;;;;;72.05;49.80;;;18.20;51.40;;;;;;4928796;28;89706;-77
2021/12/07 09:00:27;;;;;;;70.03;50.00;;;18.30;51.00;;;;;;4927559;28;89343;-76
2021/12/07 09:02:53;;;;;;;72.47;50.08;;;18.30;50.80;;;;;;4936471;28;91221;-76
2021/12/07 09:05:19;;;;;;;72.55;49.50;;;18.30;50.70;;;;;;4925311;28;91520;-77
2021/12/07 09:07:46;;;;;;;68.93;49.97;;;18.30;50.90;;;;;;4930106;28;92030;-76
2021/12/07 09:10:12;;;;;;;71.20;50.28;;;18.30;50.80;;;;;;4938953;28;96135;-76
2021/12/07 09:12:38;;;;;;;68.55;49.67;;;18.30;50.90;;;;;;4933710;28;93591;-76
2021/12/07 09:15:05;;;;;;;67.30;49.67;;;18.30;50.90;;;;;;4934810;28;93042;-77
2021/12/07 09:17:31;;;;;;;64.63;49.53;;;18.30;51.00;;;;;;4936601;28;93249;-77
2021/12/07 09:19:57;;;;;;;69.85;49.83;;;18.40;51.10;;;;;;4945175;28;90533;-76
2021/12/07 09:22:23;;;;;;;68.30;50.28;;;18.40;50.80;;;;;;4939325;28;92319;-76
2021/12/07 09:24:49;;;;;;;70.07;50.33;;;18.40;50.50;;;;;;4932691;28;90228;-76
2021/12/07 09:27:15;;;;;;;68.13;49.60;;;18.40;50.60;;;;;;4940109;28;90845;-77
2021/12/07 09:29:41;;;;;;;65.65;49.65;;;18.40;51.10;;;;;;4934560;28;96415;-77
2021/12/07 09:32:06;;;;;;;67.18;49.90;;;18.50;50.50;;;;;;4942313;28;91662;-77
2021/12/07 09:34:32;;;;;;;73.10;49.83;;;18.60;50.50;;;;;;4936654;28;89986;-77
2021/12/07 09:36:58;;;;;;;66.45;49.58;;;18.70;50.30;;;;;;4927347;28;89878;-77
2021/12/07 09:39:24;;;;;;;68.75;49.80;;;18.70;50.20;;;;;;4935468;28;90435;-77
2021/12/07 09:41:50;;;;;;;73.85;50.45;;;18.70;50.10;;;;;;4931464;28;91295;-76
2021/12/07 09:44:16;;;;;;;68.70;49.70;;;18.80;50.00;;;;;;4931051;28;92012;-78
2021/12/07 09:46:42;;;;;;;68.43;50.25;;;18.90;50.60;;;;;;4926955;28;94494;-77
2021/12/07 09:49:09;;;;;;;66.72;50.08;;;18.90;49.80;;;;;;4938675;28;92327;-77
2021/12/07 09:51:36;;;;;;;67.40;50.17;;;18.90;50.60;;;;;;4935718;28;92287;-77
2021/12/07 09:54:03;;;;;;;70.28;50.15;;;18.90;49.80;;;;;;4931565;28;91090;-78
2021/12/07 09:56:29;;;;;;;70.70;50.75;;;19.00;49.90;;;;;;4936419;28;91132;-77
2021/12/07 09:58:57;;;;;;;67.88;49.85;;;19.00;49.60;;;;;;4936291;28;91011;-79
2021/12/07 10:01:25;;;;;;;69.20;49.92;;;19.10;49.50;;;;;;4919871;28;91282;-77
2021/12/07 10:03:52;;;;;;;69.80;50.03;;;19.10;49.50;;;;;;4941169;28;90958;-78
2021/12/07 10:06:18;;;;;;;68.72;50.22;;;19.10;49.40;;;;;;4928547;28;91075;-77
2021/12/07 10:08:44;;;;;;;68.80;50.25;;;19.10;49.30;;;;;;4914278;28;91868;-76
2021/12/07 10:11:11;;;;;;;69.32;50.45;;;19.10;49.20;;;;;;4922447;28;95338;-76
2021/12/07 10:13:39;;;;;;;68.30;50.17;;;19.10;49.30;;;;;;4919296;28;90355;-77
2021/12/07 10:16:07;;;;;;;68.05;50.17;;;19.10;49.10;;;;;;4927700;28;92264;-78
2021/12/07 10:18:36;;;;;;;68.72;50.08;;;19.20;49.00;;;;;;4925522;28;92611;-77
2021/12/07 10:21:14;;;;;;;67.50;50.10;;;19.20;48.80;;;;;;4918634;28;91927;-77
2021/12/07 10:23:45;;;;;;;68.07;49.85;;;19.20;48.80;;;;;;4922514;28;93428;-77
2021/12/07 10:26:11;;;;;;;71.18;50.22;;;19.30;48.70;;;;;;4921833;28;90374;-77
2021/12/07 10:28:52;;;;;;;68.30;50.22;;;19.30;48.40;;;;;;4930521;28;90589;-79
2021/12/07 10:31:35;;;;;;;71.70;49.88;;;19.30;48.90;;;;;;4917567;28;93174;-77
2021/12/07 10:34:29;;;;;;;67.47;49.85;;;19.30;48.80;;;;;;4929800;28;89676;-80
2021/12/07 10:36:57;;;;;;;66.95;50.10;;;19.30;48.90;;;;;;4931413;28;91232;-77
2021/12/07 10:39:34;;;;;;;69.65;50.50;;;19.30;48.70;;;;;;4928354;28;90253;-79
2021/12/07 10:42:11;;;;;;;72.10;50.08;;;19.30;48.60;;;;;;4945523;28;92077;-79
2021/12/07 10:44:40;;;;;;;67.55;50.22;;;19.30;48.50;;;;;;4942356;28;90503;-79
2021/12/07 10:47:16;;;;;;;66.93;50.13;;;19.40;48.30;;;;;;4933901;28;92241;-77
2021/12/07 10:49:46;;;;;;;68.57;50.38;;;19.40;48.30;;;;;;4943755;28;92560;-77
2021/12/07 10:52:26;;;;;;;67.32;50.22;;;19.60;48.00;;;;;;4947307;28;93817;-79
2021/12/07 10:55:17;;;;;;;70.38;49.97;;;19.60;47.90;;;;;;4934743;28;91680;-77
2021/12/07 10:57:50;;;;;;;67.73;50.37;;;19.50;48.00;;;;;;4936711;28;90663;-77
2021/12/07 11:00:28;;;;;;;71.53;50.28;;;19.50;48.20;;;;;;4931517;28;94055;-76
2021/12/07 11:02:57;;;;;;;68.25;50.35;;;19.40;48.30;;;;;;4932266;28;93129;-76
2021/12/07 11:05:33;;;;;;;68.07;50.15;;;19.40;48.20;;;;;;4927500;28;88984;-78
2021/12/07 11:08:00;;;;;;;67.95;50.17;;;19.40;48.30;;;;;;4927257;28;91310;-77
2021/12/07 11:10:30;;;;;;;68.05;50.38;;;19.30;48.20;;;;;;4934746;28;91545;-77
2021/12/07 11:13:18;;;;;;;67.60;49.92;;;19.40;48.40;;;;;;4932833;28;91026;-77
2021/12/07 11:15:50;;;;;;;67.85;50.20;;;19.30;48.30;;;;;;4927880;28;91995;-79
2021/12/07 11:18:20;;;;;;;69.53;50.10;;;19.40;48.00;;;;;;4938165;28;91947;-80
2021/12/07 11:20:45;;;;;;;68.57;50.05;;;19.40;48.40;;;;;;4933891;28;92729;-78
2021/12/07 11:23:20;;;;;;;73.13;50.22;;;19.40;47.70;;;;;;4926767;28;89806;-78
2021/12/07 11:31:28;;;;;;;68.47;49.90;;;19.30;47.30;;;;;;4932934;28;91830;-77
2021/12/07 11:34:04;;;;;;;70.13;50.35;;;19.30;47.50;;;;;;4927356;28;92173;-77
2021/12/07 11:36:39;;;;;;;69.40;50.15;;;19.30;47.40;;;;;;4934287;28;91461;-77
2021/12/07 11:39:35;;;;;;;68.68;49.78;;;19.20;47.50;;;;;;4930965;28;91399;-78
2021/12/07 11:42:03;;;;;;;68.13;50.25;;;19.20;47.60;;;;;;4946370;28;92560;-78
2021/12/07 11:44:32;;;;;;;68.47;49.88;;;19.20;47.70;;;;;;4935766;28;92908;-77
2021/12/07 11:47:00;;;;;;;67.57;49.78;;;19.10;47.50;;;;;;4952567;28;90720;-77
2021/12/07 11:49:29;;;;;;;68.95;50.05;;;19.10;47.80;;;;;;4950581;28;91160;-77
2021/12/07 11:51:59;;;;;;;70.60;49.83;;;19.10;47.90;;;;;;4929191;28;91693;-77
2021/12/07 11:54:30;;;;;;;68.75;50.33;;;19.00;47.90;;;;;;4930473;28;90350;-78
2021/12/07 11:56:56;;;;;;;67.07;50.10;;;19.00;48.30;;;;;;4930456;28;92290;-77
2021/12/07 11:59:22;;;;;;;68.13;49.72;;;18.90;48.50;;;;;;4926076;28;91680;-77
2021/12/07 12:01:48;;;;;;;67.70;49.88;;;18.90;49.00;;;;;;4925992;28;93913;-77
2021/12/07 12:04:16;;;;;;;68.75;50.08;;;18.90;49.60;;;;;;4915442;28;93263;-77
2021/12/07 12:06:45;;;;;;;70.50;50.35;;;18.90;49.30;;;;;;4929633;28;93139;-77
2021/12/07 12:09:11;;;;;;;66.57;50.05;;;18.90;49.60;;;;;;4934404;28;89542;-77
2021/12/07 12:12:07;;;;;;;66.85;50.08;;;18.90;49.90;;;;;;4919438;28;91574;-76
2021/12/07 12:14:58;;;;;;;70.65;50.10;;;18.90;50.20;;;;;;4920084;28;90919;-78
2021/12/07 12:17:32;;;;;;;69.35;50.25;;;18.90;50.30;;;;;;4923967;28;90889;-77
2021/12/07 12:20:18;;;;;;;71.63;50.10;;;19.00;50.50;;;;;;4924325;28;92197;-77
2021/12/07 12:23:10;;;;;;;70.72;49.97;;;19.00;50.20;;;;;;4929094;28;90644;-77
2021/12/07 12:25:36;;;;;;;70.72;50.28;;;19.00;50.30;;;;;;4920850;28;91821;-77
2021/12/07 12:28:02;;;;;;;70.28;50.38;;;18.90;50.50;;;;;;4912004;28;92416;-77
2021/12/07 12:30:32;;;;;;;69.97;50.05;;;19.00;50.70;;;;;;4920577;28;91912;-79
2021/12/07 12:33:04;;;;;;;70.97;50.42;;;19.00;50.50;;;;;;4929256;28;92183;-78
2021/12/07 12:35:38;;;;;;;70.45;50.55;;;18.90;50.40;;;;;;4929814;28;92277;-80
2021/12/07 12:38:15;;;;;;;75.07;50.35;;;19.00;50.70;;;;;;4928285;28;90295;-78
2021/12/07 12:40:40;;;;;;;70.95;50.38;;;19.00;50.40;;;;;;4941561;28;89996;-78
2021/12/07 12:43:06;;;;;;;71.25;50.35;;;19.00;50.70;;;;;;4935943;28;90549;-79
2021/12/07 12:45:37;;;;;;;68.80;50.25;;;18.90;50.80;;;;;;4933211;28;91852;-80
2021/12/07 12:48:21;;;;;;;70.50;50.17;;;18.90;50.60;;;;;;4927466;28;90202;-80
2021/12/07 12:50:50;;;;;;;67.97;50.22;;;18.90;50.30;;;;;;4935205;28;90310;-80
2021/12/07 12:53:34;;;;;;;67.93;50.28;;;18.90;50.20;;;;;;4920726;28;92992;-81
2021/12/07 12:56:03;;;;;;;67.68;49.88;;;18.90;50.30;;;;;;4939439;28;91932;-80
2021/12/07 12:58:35;;;;;;;68.00;50.13;;;19.00;50.30;;;;;;4935216;28;92565;-80
2021/12/07 13:01:21;;;;;;;67.53;50.53;;;19.00;50.20;;;;;;4947319;28;90068;-80
2021/12/07 13:04:00;;;;;;;69.53;50.35;;;19.10;50.10;;;;;;4931422;28;91430;-80
2021/12/07 13:06:32;;;;;;;66.82;50.13;;;19.30;49.40;;;;;;4913415;28;93407;-77
2021/12/07 13:09:17;;;;;;;67.07;50.40;;;19.50;49.70;;;;;;4932690;28;90264;-77
2021/12/07 13:11:53;;;;;;;68.20;50.38;;;19.70;49.30;;;;;;4929414;28;89978;-78
2021/12/07 13:14:21;;;;;;;68.28;50.47;;;19.90;49.00;;;;;;4925270;28;90743;-78
2021/12/07 13:17:07;;;;;;;68.80;50.72;;;20.00;48.90;;;;;;4936142;28;92109;-77
2021/12/07 13:20:19;;;;;;;70.57;50.65;;;20.20;48.20;;;;;;4931854;28;90736;-78
2021/12/07 13:22:47;;;;;;;;;;;20.30;47.80;;;;;;4931010;28;91265;-77
2021/12/07 13:25:23;;;;;;;69.07;50.40;;;20.40;47.60;;;;;;4924458;28;90599;-79
2021/12/07 13:28:11;;;;;;;69.47;50.60;;;20.60;47.30;;;;;;4927681;28;90989;-77
2021/12/07 13:31:00;;;;;;;67.80;50.22;;;20.70;46.80;;;;;;4926318;28;91030;-78
2021/12/07 13:33:48;;;;;;;67.88;50.65;;;20.80;46.70;;;;;;4930883;28;90266;-78
2021/12/07 13:36:32;;;;;;;67.82;50.35;;;21.00;46.60;;;;;;4930126;28;89774;-79
2021/12/07 13:39:05;;;;;;;70.10;50.78;;;21.00;46.10;;;;;;4917859;28;91268;-77
2021/12/07 13:41:31;;;;;;;71.15;50.55;;;21.00;46.10;;;;;;4928955;28;91090;-79
2021/12/07 13:43:56;;;;;;;68.20;50.65;;;21.10;45.90;;;;;;4923835;28;92500;-78
2021/12/07 13:46:27;;;;;;;69.28;50.55;;;21.20;45.90;;;;;;4928572;28;92953;-78
2021/12/07 13:49:06;;;;;;;68.53;50.25;;;21.20;45.80;;;;;;4919329;28;90886;-78
2021/12/07 13:51:32;;;;;;;70.05;50.72;;;21.40;45.40;;;;;;4921610;28;90366;-78
2021/12/07 13:54:00;;;;;;;68.57;50.63;;;21.40;45.10;;;;;;4921768;28;90266;-77
2021/12/07 13:56:31;;;;;;;67.50;50.42;;;21.40;45.30;;;;;;4931078;28;96294;-78
2021/12/07 13:58:58;;;;;;;68.57;50.37;;;21.40;45.30;;;;;;4934014;28;92661;-79
2021/12/07 14:01:26;;;;;;;68.72;50.63;;;21.40;45.20;;;;;;4934443;28;91919;-78
2021/12/07 14:03:52;;;;;;;68.25;50.55;;;21.40;45.20;;;;;;4937391;28;90194;-79
2021/12/07 14:06:18;;;;;;;68.85;50.50;;;21.40;45.30;;;;;;4938985;28;90355;-78
2021/12/07 14:08:44;;;;;;;67.43;50.60;;;21.40;45.10;;;;;;4930032;28;92312;-78
2021/12/07 14:11:14;;;;;;;67.07;50.30;;;21.40;44.80;;;;;;4945608;28;89663;-79
2021/12/07 14:13:45;;;;;;;67.13;50.15;;;21.30;44.90;;;;;;4937500;28;92041;-78
2021/12/07 14:16:13;;;;;;;68.72;50.33;;;21.30;45.00;;;;;;4945127;28;90368;-78
2021/12/07 14:18:43;;;;;;;68.22;50.53;;;21.30;45.00;;;;;;4940558;28;90067;-78
2021/12/07 14:21:09;;;;;;;66.93;50.00;;;21.30;45.00;;;;;;4943101;28;91587;-78
2021/12/07 14:23:39;;;;;;;68.53;50.50;;;21.20;44.80;;;;;;4940606;28;91814;-79